sensor_id;sensor_type;location;lat;lon;timestamp;temperature;humidity
61841;DHT22;47773;53.174;6.614;2022-08-18T00:04:36;19.60;99.90
61841;DHT22;47773;53.174;6.614;2022-08-18T00:07:13;19.60;99.90
61841;DHT22;47773;53.174;6.614;2022-08-18T00:09:39;19.50;99.90
61841;DHT22;47773;53.174;6.614;2022-08-18T00:12:15;19.50;99.90
61841;DHT22;47773;53.174;6.614;2022-08-18T00:14:41;19.60;99.90
61841;DHT22;47773;53.174;6.614;2022-08-18T00:17:07;19.50;99.90
61841;DHT22;47773;53.174;6.614;2022-08-18T00:19:33;19.50;99.90
61841;DHT22;47773;53.174;6.614;2022-08-18T00:21:58;19.60;99.90
61841;DHT22;47773;53.174;6.614;2022-08-18T00:24:24;19.50;99.90
61841;DHT22;47773;53.174;6.614;2022-08-18T00:26:50;19.50;99.90
61841;DHT22;47773;53.174;6.614;2022-08-18T00:29:16;19.50;99.90
61841;DHT22;47773;53.174;6.614;2022-08-18T00:31:41;19.50;99.90
61841;DHT22;47773;53.174;6.614;2022-08-18T00:34:07;19.50;99.90
61841;DHT22;47773;53.174;6.614;2022-08-18T00:36:33;19.50;99.90
61841;DHT22;47773;53.174;6.614;2022-08-18T00:38:59;19.60;99.90
61841;DHT22;47773;53.174;6.614;2022-08-18T00:41:26;19.50;99.90
61841;DHT22;47773;53.174;6.614;2022-08-18T00:43:52;19.50;99.90
61841;DHT22;47773;53.174;6.614;2022-08-18T00:46:28;19.50;99.90
61841;DHT22;47773;53.174;6.614;2022-08-18T00:48:54;19.50;99.90
61841;DHT22;47773;53.174;6.614;2022-08-18T00:51:28;19.50;99.90
61841;DHT22;47773;53.174;6.614;2022-08-18T00:54:16;19.50;99.90
61841;DHT22;47773;53.174;6.614;2022-08-18T00:56:50;19.50;99.90
61841;DHT22;47773;53.174;6.614;2022-08-18T00:59:27;19.40;99.90
61841;DHT22;47773;53.174;6.614;2022-08-18T01:01:58;19.40;99.90
61841;DHT22;47773;53.174;6.614;2022-08-18T01:07:06;19.40;99.90
61841;DHT22;47773;53.174;6.614;2022-08-18T01:09:34;19.40;99.90
61841;DHT22;47773;53.174;6.614;2022-08-18T01:12:00;19.40;99.90
61841;DHT22;47773;53.174;6.614;2022-08-18T01:14:26;19.40;99.90
61841;DHT22;47773;53.174;6.614;2022-08-18T01:16:52;19.40;99.90
61841;DHT22;47773;53.174;6.614;2022-08-18T01:19:36;19.30;99.90
61841;DHT22;47773;53.174;6.614;2022-08-18T01:25:16;19.30;99.90
61841;DHT22;47773;53.174;6.614;2022-08-18T01:28:02;19.30;99.90
61841;DHT22;47773;53.174;6.614;2022-08-18T01:30:29;19.30;99.90
61841;DHT22;47773;53.174;6.614;2022-08-18T01:32:56;19.30;99.90
61841;DHT22;47773;53.174;6.614;2022-08-18T01:35:24;19.30;99.90
61841;DHT22;47773;53.174;6.614;2022-08-18T01:37:51;19.30;99.90
61841;DHT22;47773;53.174;6.614;2022-08-18T01:40:20;19.30;99.90
61841;DHT22;47773;53.174;6.614;2022-08-18T01:42:46;19.30;99.90
61841;DHT22;47773;53.174;6.614;2022-08-18T01:45:15;19.30;99.90
61841;DHT22;47773;53.174;6.614;2022-08-18T01:47:41;19.30;99.90
61841;DHT22;47773;53.174;6.614;2022-08-18T01:50:08;19.30;99.90
61841;DHT22;47773;53.174;6.614;2022-08-18T01:52:35;19.30;99.90
61841;DHT22;47773;53.174;6.614;2022-08-18T01:55:02;19.30;99.90
61841;DHT22;47773;53.174;6.614;2022-08-18T01:57:28;19.40;99.90
61841;DHT22;47773;53.174;6.614;2022-08-18T01:59:54;19.40;99.90
61841;DHT22;47773;53.174;6.614;2022-08-18T02:02:23;19.40;99.90
61841;DHT22;47773;53.174;6.614;2022-08-18T02:04:58;19.40;99.90
61841;DHT22;47773;53.174;6.614;2022-08-18T02:07:25;19.40;99.90
61841;DHT22;47773;53.174;6.614;2022-08-18T02:09:51;19.40;99.90
61841;DHT22;47773;53.174;6.614;2022-08-18T02:12:16;19.40;99.90
61841;DHT22;47773;53.174;6.614;2022-08-18T02:14:42;19.40;99.90
61841;DHT22;47773;53.174;6.614;2022-08-18T02:17:10;19.40;99.90
61841;DHT22;47773;53.174;6.614;2022-08-18T02:19:40;19.40;99.90
61841;DHT22;47773;53.174;6.614;2022-08-18T02:22:08;19.40;99.90
61841;DHT22;47773;53.174;6.614;2022-08-18T02:24:34;19.40;99.90
61841;DHT22;47773;53.174;6.614;2022-08-18T02:27:00;19.40;99.90
61841;DHT22;47773;53.174;6.614;2022-08-18T02:29:26;19.40;99.90
61841;DHT22;47773;53.174;6.614;2022-08-18T02:31:52;19.40;99.90
61841;DHT22;47773;53.174;6.614;2022-08-18T02:34:17;19.40;99.90
61841;DHT22;47773;53.174;6.614;2022-08-18T02:36:43;19.40;99.90
61841;DHT22;47773;53.174;6.614;2022-08-18T02:39:09;19.40;99.90
61841;DHT22;47773;53.174;6.614;2022-08-18T02:41:35;19.40;99.90
61841;DHT22;47773;53.174;6.614;2022-08-18T02:44:01;19.40;99.90
61841;DHT22;47773;53.174;6.614;2022-08-18T02:46:27;19.40;99.90
61841;DHT22;47773;53.174;6.614;2022-08-18T02:48:53;19.40;99.90
61841;DHT22;47773;53.174;6.614;2022-08-18T02:51:20;19.40;99.90
61841;DHT22;47773;53.174;6.614;2022-08-18T02:53:46;19.40;99.90
61841;DHT22;47773;53.174;6.614;2022-08-18T02:56:21;19.40;99.90
61841;DHT22;47773;53.174;6.614;2022-08-18T02:59:19;19.40;99.90
61841;DHT22;47773;53.174;6.614;2022-08-18T03:01:47;19.40;99.90
61841;DHT22;47773;53.174;6.614;2022-08-18T03:04:15;19.40;99.90
61841;DHT22;47773;53.174;6.614;2022-08-18T03:06:41;19.40;99.90
61841;DHT22;47773;53.174;6.614;2022-08-18T03:09:08;19.40;99.90
61841;DHT22;47773;53.174;6.614;2022-08-18T03:11:35;19.40;99.90
61841;DHT22;47773;53.174;6.614;2022-08-18T03:14:01;19.40;99.90
61841;DHT22;47773;53.174;6.614;2022-08-18T03:16:27;19.40;99.90
61841;DHT22;47773;53.174;6.614;2022-08-18T03:18:56;19.40;99.90
61841;DHT22;47773;53.174;6.614;2022-08-18T03:21:24;19.40;99.90
61841;DHT22;47773;53.174;6.614;2022-08-18T03:23:51;19.40;99.90
61841;DHT22;47773;53.174;6.614;2022-08-18T03:26:18;19.40;99.90
61841;DHT22;47773;53.174;6.614;2022-08-18T03:28:47;19.40;99.90
61841;DHT22;47773;53.174;6.614;2022-08-18T03:31:15;19.40;99.90
61841;DHT22;47773;53.174;6.614;2022-08-18T03:33:42;19.40;99.90
61841;DHT22;47773;53.174;6.614;2022-08-18T03:36:10;19.40;99.90
61841;DHT22;47773;53.174;6.614;2022-08-18T03:38:37;19.40;99.90
61841;DHT22;47773;53.174;6.614;2022-08-18T03:41:04;19.40;99.90
61841;DHT22;47773;53.174;6.614;2022-08-18T03:43:30;19.40;99.90
61841;DHT22;47773;53.174;6.614;2022-08-18T03:46:04;19.50;99.90
61841;DHT22;47773;53.174;6.614;2022-08-18T03:48:30;19.40;99.90
61841;DHT22;47773;53.174;6.614;2022-08-18T03:51:10;19.50;99.90
61841;DHT22;47773;53.174;6.614;2022-08-18T03:53:37;19.40;99.90
61841;DHT22;47773;53.174;6.614;2022-08-18T03:56:11;19.40;99.90
61841;DHT22;47773;53.174;6.614;2022-08-18T03:58:45;19.40;99.90
61841;DHT22;47773;53.174;6.614;2022-08-18T04:01:16;19.40;99.90
61841;DHT22;47773;53.174;6.614;2022-08-18T04:03:43;19.40;99.90
61841;DHT22;47773;53.174;6.614;2022-08-18T04:06:17;19.40;99.90
61841;DHT22;47773;53.174;6.614;2022-08-18T04:08:43;19.50;99.90
61841;DHT22;47773;53.174;6.614;2022-08-18T04:11:11;19.40;99.90
61841;DHT22;47773;53.174;6.614;2022-08-18T04:13:37;19.50;99.90
61841;DHT22;47773;53.174;6.614;2022-08-18T04:16:04;19.50;99.90
61841;DHT22;47773;53.174;6.614;2022-08-18T04:18:30;19.40;99.90
61841;DHT22;47773;53.174;6.614;2022-08-18T04:20:56;19.50;99.90
61841;DHT22;47773;53.174;6.614;2022-08-18T04:23:23;19.40;99.90
61841;DHT22;47773;53.174;6.614;2022-08-18T04:25:56;19.40;99.90
61841;DHT22;47773;53.174;6.614;2022-08-18T04:28:22;19.40;99.90
61841;DHT22;47773;53.174;6.614;2022-08-18T04:30:48;19.40;99.90
61841;DHT22;47773;53.174;6.614;2022-08-18T04:33:14;19.40;99.90
61841;DHT22;47773;53.174;6.614;2022-08-18T04:35:39;19.40;99.90
61841;DHT22;47773;53.174;6.614;2022-08-18T04:38:05;19.40;99.90
61841;DHT22;47773;53.174;6.614;2022-08-18T04:40:32;19.40;99.90
61841;DHT22;47773;53.174;6.614;2022-08-18T04:42:58;19.40;99.90
61841;DHT22;47773;53.174;6.614;2022-08-18T04:45:26;19.40;99.90
61841;DHT22;47773;53.174;6.614;2022-08-18T04:47:52;19.40;99.90
61841;DHT22;47773;53.174;6.614;2022-08-18T04:50:18;19.40;99.90
61841;DHT22;47773;53.174;6.614;2022-08-18T04:52:44;19.40;99.90
61841;DHT22;47773;53.174;6.614;2022-08-18T04:55:28;19.40;99.90
61841;DHT22;47773;53.174;6.614;2022-08-18T04:57:55;19.40;99.90
61841;DHT22;47773;53.174;6.614;2022-08-18T05:00:21;19.40;99.90
61841;DHT22;47773;53.174;6.614;2022-08-18T05:02:46;19.40;99.90
61841;DHT22;47773;53.174;6.614;2022-08-18T05:05:13;19.40;99.90
61841;DHT22;47773;53.174;6.614;2022-08-18T05:07:43;19.40;99.90
61841;DHT22;47773;53.174;6.614;2022-08-18T05:10:10;19.50;99.90
61841;DHT22;47773;53.174;6.614;2022-08-18T05:12:37;19.50;99.90
61841;DHT22;47773;53.174;6.614;2022-08-18T05:15:06;19.40;99.90
61841;DHT22;47773;53.174;6.614;2022-08-18T05:17:35;19.50;99.90
61841;DHT22;47773;53.174;6.614;2022-08-18T05:20:07;19.40;99.90
61841;DHT22;47773;53.174;6.614;2022-08-18T05:22:38;19.40;99.90
61841;DHT22;47773;53.174;6.614;2022-08-18T05:25:04;19.40;99.90
61841;DHT22;47773;53.174;6.614;2022-08-18T05:27:35;19.40;99.90
61841;DHT22;47773;53.174;6.614;2022-08-18T05:30:02;19.30;99.90
61841;DHT22;47773;53.174;6.614;2022-08-18T05:32:32;19.30;99.90
61841;DHT22;47773;53.174;6.614;2022-08-18T05:35:02;19.30;99.90
61841;DHT22;47773;53.174;6.614;2022-08-18T05:37:56;19.30;99.90
61841;DHT22;47773;53.174;6.614;2022-08-18T05:40:25;19.30;99.90
61841;DHT22;47773;53.174;6.614;2022-08-18T05:42:53;19.30;99.90
61841;DHT22;47773;53.174;6.614;2022-08-18T05:45:22;19.30;99.90
61841;DHT22;47773;53.174;6.614;2022-08-18T05:47:48;19.30;99.90
61841;DHT22;47773;53.174;6.614;2022-08-18T05:50:17;19.30;99.90
61841;DHT22;47773;53.174;6.614;2022-08-18T05:56:16;19.40;99.90
61841;DHT22;47773;53.174;6.614;2022-08-18T05:58:45;19.40;99.90
61841;DHT22;47773;53.174;6.614;2022-08-18T06:01:37;19.40;99.90
61841;DHT22;47773;53.174;6.614;2022-08-18T06:04:19;19.50;99.90
61841;DHT22;47773;53.174;6.614;2022-08-18T06:06:46;19.50;99.90
61841;DHT22;47773;53.174;6.614;2022-08-18T06:09:18;19.50;99.90
61841;DHT22;47773;53.174;6.614;2022-08-18T06:11:47;19.50;99.90
61841;DHT22;47773;53.174;6.614;2022-08-18T06:14:13;19.60;99.90
61841;DHT22;47773;53.174;6.614;2022-08-18T06:17:14;19.50;99.90
61841;DHT22;47773;53.174;6.614;2022-08-18T06:20:13;19.60;99.90
61841;DHT22;47773;53.174;6.614;2022-08-18T06:25:49;19.70;99.90
61841;DHT22;47773;53.174;6.614;2022-08-18T06:28:19;19.70;99.90
61841;DHT22;47773;53.174;6.614;2022-08-18T06:34:08;19.70;99.90
61841;DHT22;47773;53.174;6.614;2022-08-18T06:37:00;19.80;99.90
61841;DHT22;47773;53.174;6.614;2022-08-18T06:42:05;19.80;99.90
61841;DHT22;47773;53.174;6.614;2022-08-18T06:44:40;19.80;99.90
61841;DHT22;47773;53.174;6.614;2022-08-18T06:49:49;19.80;99.90
61841;DHT22;47773;53.174;6.614;2022-08-18T06:52:37;19.80;99.90
61841;DHT22;47773;53.174;6.614;2022-08-18T06:55:07;19.80;99.90
61841;DHT22;47773;53.174;6.614;2022-08-18T06:57:40;19.80;99.90
61841;DHT22;47773;53.174;6.614;2022-08-18T07:02:59;19.70;99.90
61841;DHT22;47773;53.174;6.614;2022-08-18T07:05:27;19.70;99.90
61841;DHT22;47773;53.174;6.614;2022-08-18T07:08:10;19.70;99.90
61841;DHT22;47773;53.174;6.614;2022-08-18T07:13:28;19.80;99.90
61841;DHT22;47773;53.174;6.614;2022-08-18T07:16:00;19.80;99.90
61841;DHT22;47773;53.174;6.614;2022-08-18T07:18:41;19.80;99.90
61841;DHT22;47773;53.174;6.614;2022-08-18T07:21:08;19.70;99.90
61841;DHT22;47773;53.174;6.614;2022-08-18T07:24:01;19.60;99.90
61841;DHT22;47773;53.174;6.614;2022-08-18T07:26:27;19.60;99.90
61841;DHT22;47773;53.174;6.614;2022-08-18T07:28:53;19.60;99.90
61841;DHT22;47773;53.174;6.614;2022-08-18T07:34:02;19.60;99.90
61841;DHT22;47773;53.174;6.614;2022-08-18T07:36:32;19.60;99.90
61841;DHT22;47773;53.174;6.614;2022-08-18T07:39:30;19.50;99.90
61841;DHT22;47773;53.174;6.614;2022-08-18T07:45:01;19.40;99.90
61841;DHT22;47773;53.174;6.614;2022-08-18T07:49:57;19.40;99.90
61841;DHT22;47773;53.174;6.614;2022-08-18T07:52:29;19.40;99.90
61841;DHT22;47773;53.174;6.614;2022-08-18T07:57:28;19.40;99.90
61841;DHT22;47773;53.174;6.614;2022-08-18T08:00:18;19.50;99.90
61841;DHT22;47773;53.174;6.614;2022-08-18T08:02:47;19.50;99.90
61841;DHT22;47773;53.174;6.614;2022-08-18T08:08:16;19.60;99.90
61841;DHT22;47773;53.174;6.614;2022-08-18T08:11:12;19.60;99.90
61841;DHT22;47773;53.174;6.614;2022-08-18T08:14:10;19.60;99.90
61841;DHT22;47773;53.174;6.614;2022-08-18T08:16:48;19.50;99.90
61841;DHT22;47773;53.174;6.614;2022-08-18T08:30:18;19.60;99.90
61841;DHT22;47773;53.174;6.614;2022-08-18T08:33:09;19.70;99.90
61841;DHT22;47773;53.174;6.614;2022-08-18T08:35:53;19.70;99.90
61841;DHT22;47773;53.174;6.614;2022-08-18T08:38:26;19.70;99.90
61841;DHT22;47773;53.174;6.614;2022-08-18T08:40:58;19.80;99.90
61841;DHT22;47773;53.174;6.614;2022-08-18T08:43:39;19.80;99.90
61841;DHT22;47773;53.174;6.614;2022-08-18T08:46:21;19.90;99.90
61841;DHT22;47773;53.174;6.614;2022-08-18T08:49:06;19.90;99.90
61841;DHT22;47773;53.174;6.614;2022-08-18T08:51:43;20.00;99.90
61841;DHT22;47773;53.174;6.614;2022-08-18T08:54:22;20.10;99.90
61841;DHT22;47773;53.174;6.614;2022-08-18T08:56:53;20.10;99.90
61841;DHT22;47773;53.174;6.614;2022-08-18T09:10:26;20.70;99.90
61841;DHT22;47773;53.174;6.614;2022-08-18T09:13:28;20.70;99.90
61841;DHT22;47773;53.174;6.614;2022-08-18T09:19:05;20.70;99.90
61841;DHT22;47773;53.174;6.614;2022-08-18T09:21:44;20.60;99.90
61841;DHT22;47773;53.174;6.614;2022-08-18T09:24:26;20.70;99.90
61841;DHT22;47773;53.174;6.614;2022-08-18T09:35:17;20.70;99.90
61841;DHT22;47773;53.174;6.614;2022-08-18T09:37:54;20.60;99.90
61841;DHT22;47773;53.174;6.614;2022-08-18T09:40:48;20.70;99.90
61841;DHT22;47773;53.174;6.614;2022-08-18T09:43:38;20.70;99.90
61841;DHT22;47773;53.174;6.614;2022-08-18T09:46:06;20.60;99.90
61841;DHT22;47773;53.174;6.614;2022-08-18T09:48:42;20.60;99.90
61841;DHT22;47773;53.174;6.614;2022-08-18T09:56:13;20.60;99.90
61841;DHT22;47773;53.174;6.614;2022-08-18T10:04:17;20.90;99.90
61841;DHT22;47773;53.174;6.614;2022-08-18T10:06:46;21.60;99.90
61841;DHT22;47773;53.174;6.614;2022-08-18T10:12:13;21.80;99.90
61841;DHT22;47773;53.174;6.614;2022-08-18T10:20:35;21.60;99.90
61841;DHT22;47773;53.174;6.614;2022-08-18T10:23:04;21.60;99.90
61841;DHT22;47773;53.174;6.614;2022-08-18T10:25:43;21.50;99.90
61841;DHT22;47773;53.174;6.614;2022-08-18T10:29:06;21.40;99.90
61841;DHT22;47773;53.174;6.614;2022-08-18T10:31:28;21.40;99.90
61841;DHT22;47773;53.174;6.614;2022-08-18T10:34:05;21.30;99.90
61841;DHT22;47773;53.174;6.614;2022-08-18T10:36:35;21.20;99.90
61841;DHT22;47773;53.174;6.614;2022-08-18T10:39:05;21.10;99.90
61841;DHT22;47773;53.174;6.614;2022-08-18T10:41:32;21.10;99.90
61841;DHT22;47773;53.174;6.614;2022-08-18T10:44:01;20.90;99.90
61841;DHT22;47773;53.174;6.614;2022-08-18T10:46:31;20.90;99.90
61841;DHT22;47773;53.174;6.614;2022-08-18T10:57:23;20.80;99.90
61841;DHT22;47773;53.174;6.614;2022-08-18T11:00:03;20.80;99.90
61841;DHT22;47773;53.174;6.614;2022-08-18T11:02:55;20.80;99.90
61841;DHT22;47773;53.174;6.614;2022-08-18T11:05:26;20.90;99.90
61841;DHT22;47773;53.174;6.614;2022-08-18T11:07:58;20.90;99.90
61841;DHT22;47773;53.174;6.614;2022-08-18T11:10:38;20.90;99.90
61841;DHT22;47773;53.174;6.614;2022-08-18T11:18:31;21.10;99.90
61841;DHT22;47773;53.174;6.614;2022-08-18T11:21:20;21.10;99.90
61841;DHT22;47773;53.174;6.614;2022-08-18T11:24:12;21.10;99.90
61841;DHT22;47773;53.174;6.614;2022-08-18T11:26:52;21.10;99.90
61841;DHT22;47773;53.174;6.614;2022-08-18T11:29:40;21.00;99.90
61841;DHT22;47773;53.174;6.614;2022-08-18T11:32:27;21.10;99.90
61841;DHT22;47773;53.174;6.614;2022-08-18T11:37:24;21.10;99.90
61841;DHT22;47773;53.174;6.614;2022-08-18T11:44:45;21.60;99.90
61841;DHT22;47773;53.174;6.614;2022-08-18T11:47:17;21.80;99.90
61841;DHT22;47773;53.174;6.614;2022-08-18T11:49:52;21.90;99.90
61841;DHT22;47773;53.174;6.614;2022-08-18T11:52:27;21.90;99.90
61841;DHT22;47773;53.174;6.614;2022-08-18T11:55:00;21.90;99.90
61841;DHT22;47773;53.174;6.614;2022-08-18T12:00:37;21.90;99.90
61841;DHT22;47773;53.174;6.614;2022-08-18T12:03:36;21.80;99.90
61841;DHT22;47773;53.174;6.614;2022-08-18T12:06:17;21.70;99.90
61841;DHT22;47773;53.174;6.614;2022-08-18T12:08:50;21.70;99.90
61841;DHT22;47773;53.174;6.614;2022-08-18T12:11:21;21.70;99.90
61841;DHT22;47773;53.174;6.614;2022-08-18T12:16:40;22.10;99.90
61841;DHT22;47773;53.174;6.614;2022-08-18T12:19:10;22.40;99.90
61841;DHT22;47773;53.174;6.614;2022-08-18T12:21:43;22.50;99.90
61841;DHT22;47773;53.174;6.614;2022-08-18T12:24:19;22.60;99.90
61841;DHT22;47773;53.174;6.614;2022-08-18T12:26:46;23.00;99.90
61841;DHT22;47773;53.174;6.614;2022-08-18T12:29:12;23.20;99.90
61841;DHT22;47773;53.174;6.614;2022-08-18T12:31:38;23.10;99.90
61841;DHT22;47773;53.174;6.614;2022-08-18T12:34:04;23.10;99.90
61841;DHT22;47773;53.174;6.614;2022-08-18T12:36:30;23.00;99.90
61841;DHT22;47773;53.174;6.614;2022-08-18T12:38:56;22.90;99.90
61841;DHT22;47773;53.174;6.614;2022-08-18T12:41:22;23.00;99.90
61841;DHT22;47773;53.174;6.614;2022-08-18T12:43:48;23.10;99.90
61841;DHT22;47773;53.174;6.614;2022-08-18T12:46:13;23.20;99.90
61841;DHT22;47773;53.174;6.614;2022-08-18T12:48:39;23.30;99.90
61841;DHT22;47773;53.174;6.614;2022-08-18T12:51:06;23.30;99.90
61841;DHT22;47773;53.174;6.614;2022-08-18T12:53:33;23.10;99.90
61841;DHT22;47773;53.174;6.614;2022-08-18T12:55:59;22.90;99.90
61841;DHT22;47773;53.174;6.614;2022-08-18T12:58:25;22.80;99.90
61841;DHT22;47773;53.174;6.614;2022-08-18T13:00:51;23.10;99.90
61841;DHT22;47773;53.174;6.614;2022-08-18T13:05:44;23.50;99.90
61841;DHT22;47773;53.174;6.614;2022-08-18T13:08:16;23.30;99.90
61841;DHT22;47773;53.174;6.614;2022-08-18T13:10:43;23.10;99.90
61841;DHT22;47773;53.174;6.614;2022-08-18T13:13:09;23.00;99.90
61841;DHT22;47773;53.174;6.614;2022-08-18T13:15:35;23.10;99.90
61841;DHT22;47773;53.174;6.614;2022-08-18T13:18:01;23.20;99.90
61841;DHT22;47773;53.174;6.614;2022-08-18T13:20:27;23.20;99.90
61841;DHT22;47773;53.174;6.614;2022-08-18T13:22:53;23.20;99.90
61841;DHT22;47773;53.174;6.614;2022-08-18T13:25:19;23.00;99.90
61841;DHT22;47773;53.174;6.614;2022-08-18T13:27:45;23.00;99.90
61841;DHT22;47773;53.174;6.614;2022-08-18T13:30:14;23.00;99.90
61841;DHT22;47773;53.174;6.614;2022-08-18T13:32:40;22.80;99.90
61841;DHT22;47773;53.174;6.614;2022-08-18T13:35:06;23.00;99.90
61841;DHT22;47773;53.174;6.614;2022-08-18T13:37:32;23.10;99.90
61841;DHT22;47773;53.174;6.614;2022-08-18T13:39:59;23.10;99.90
61841;DHT22;47773;53.174;6.614;2022-08-18T13:42:25;23.00;99.90
61841;DHT22;47773;53.174;6.614;2022-08-18T13:44:54;23.00;99.90
61841;DHT22;47773;53.174;6.614;2022-08-18T13:47:22;23.10;99.90
61841;DHT22;47773;53.174;6.614;2022-08-18T13:49:49;23.50;99.90
61841;DHT22;47773;53.174;6.614;2022-08-18T13:52:16;23.60;99.90
61841;DHT22;47773;53.174;6.614;2022-08-18T13:54:41;23.80;99.90
61841;DHT22;47773;53.174;6.614;2022-08-18T13:59:36;23.90;99.90
61841;DHT22;47773;53.174;6.614;2022-08-18T14:02:06;23.70;99.90
61841;DHT22;47773;53.174;6.614;2022-08-18T14:07:00;23.50;99.90
61841;DHT22;47773;53.174;6.614;2022-08-18T14:09:27;23.50;99.90
61841;DHT22;47773;53.174;6.614;2022-08-18T14:11:53;23.40;99.90
61841;DHT22;47773;53.174;6.614;2022-08-18T14:16:45;23.20;99.90
61841;DHT22;47773;53.174;6.614;2022-08-18T14:19:11;23.30;99.90
61841;DHT22;47773;53.174;6.614;2022-08-18T14:21:55;23.30;99.90
61841;DHT22;47773;53.174;6.614;2022-08-18T14:24:40;23.40;99.90
61841;DHT22;47773;53.174;6.614;2022-08-18T14:27:27;23.30;99.90
61841;DHT22;47773;53.174;6.614;2022-08-18T14:29:55;23.20;99.90
61841;DHT22;47773;53.174;6.614;2022-08-18T14:32:22;23.10;99.90
61841;DHT22;47773;53.174;6.614;2022-08-18T14:34:48;23.10;99.90
61841;DHT22;47773;53.174;6.614;2022-08-18T14:37:14;23.00;99.90
61841;DHT22;47773;53.174;6.614;2022-08-18T14:39:40;23.00;99.90
61841;DHT22;47773;53.174;6.614;2022-08-18T14:42:06;22.90;99.90
61841;DHT22;47773;53.174;6.614;2022-08-18T14:44:32;22.80;99.90
61841;DHT22;47773;53.174;6.614;2022-08-18T14:46:57;22.80;99.90
61841;DHT22;47773;53.174;6.614;2022-08-18T14:49:23;22.80;99.90
61841;DHT22;47773;53.174;6.614;2022-08-18T14:51:49;22.70;99.90
61841;DHT22;47773;53.174;6.614;2022-08-18T14:54:15;22.60;99.90
61841;DHT22;47773;53.174;6.614;2022-08-18T14:56:41;22.60;99.90
61841;DHT22;47773;53.174;6.614;2022-08-18T14:59:07;22.60;99.90
61841;DHT22;47773;53.174;6.614;2022-08-18T15:01:35;22.50;99.90
61841;DHT22;47773;53.174;6.614;2022-08-18T15:04:01;22.50;99.90
61841;DHT22;47773;53.174;6.614;2022-08-18T15:06:27;22.60;99.90
61841;DHT22;47773;53.174;6.614;2022-08-18T15:08:52;22.70;99.90
61841;DHT22;47773;53.174;6.614;2022-08-18T15:11:18;22.70;99.90
61841;DHT22;47773;53.174;6.614;2022-08-18T15:13:44;22.60;99.90
61841;DHT22;47773;53.174;6.614;2022-08-18T15:16:12;22.60;99.90
61841;DHT22;47773;53.174;6.614;2022-08-18T15:18:43;22.60;99.90
61841;DHT22;47773;53.174;6.614;2022-08-18T15:21:11;22.60;99.90
61841;DHT22;47773;53.174;6.614;2022-08-18T15:23:54;22.60;99.90
61841;DHT22;47773;53.174;6.614;2022-08-18T15:26:39;22.60;99.90
61841;DHT22;47773;53.174;6.614;2022-08-18T15:29:09;22.60;99.90
61841;DHT22;47773;53.174;6.614;2022-08-18T15:31:36;22.60;99.90
61841;DHT22;47773;53.174;6.614;2022-08-18T15:34:02;22.60;99.90
61841;DHT22;47773;53.174;6.614;2022-08-18T15:36:28;22.60;99.90
61841;DHT22;47773;53.174;6.614;2022-08-18T15:39:00;22.50;99.90
61841;DHT22;47773;53.174;6.614;2022-08-18T15:41:36;22.40;99.90
61841;DHT22;47773;53.174;6.614;2022-08-18T15:44:04;22.40;99.90
61841;DHT22;47773;53.174;6.614;2022-08-18T15:46:31;22.40;99.90
61841;DHT22;47773;53.174;6.614;2022-08-18T15:48:58;22.40;99.90
61841;DHT22;47773;53.174;6.614;2022-08-18T15:51:24;22.30;99.90
61841;DHT22;47773;53.174;6.614;2022-08-18T15:53:50;22.30;99.90
61841;DHT22;47773;53.174;6.614;2022-08-18T15:56:19;22.30;99.90
61841;DHT22;47773;53.174;6.614;2022-08-18T15:58:44;22.20;99.90
61841;DHT22;47773;53.174;6.614;2022-08-18T16:01:12;22.20;99.90
61841;DHT22;47773;53.174;6.614;2022-08-18T16:03:38;22.20;99.90
61841;DHT22;47773;53.174;6.614;2022-08-18T16:06:05;22.10;99.90
61841;DHT22;47773;53.174;6.614;2022-08-18T16:08:32;22.10;99.90
61841;DHT22;47773;53.174;6.614;2022-08-18T16:10:57;22.00;99.90
61841;DHT22;47773;53.174;6.614;2022-08-18T16:13:30;22.00;99.90
61841;DHT22;47773;53.174;6.614;2022-08-18T16:15:56;21.90;99.90
61841;DHT22;47773;53.174;6.614;2022-08-18T16:18:21;21.90;99.90
61841;DHT22;47773;53.174;6.614;2022-08-18T16:20:47;21.80;99.90
61841;DHT22;47773;53.174;6.614;2022-08-18T16:23:13;21.90;99.90
61841;DHT22;47773;53.174;6.614;2022-08-18T16:25:40;21.90;99.90
61841;DHT22;47773;53.174;6.614;2022-08-18T16:28:07;21.90;99.90
61841;DHT22;47773;53.174;6.614;2022-08-18T16:30:33;21.90;99.90
61841;DHT22;47773;53.174;6.614;2022-08-18T16:33:00;21.90;99.90
61841;DHT22;47773;53.174;6.614;2022-08-18T16:35:27;21.80;99.90
61841;DHT22;47773;53.174;6.614;2022-08-18T16:37:53;21.80;99.90
61841;DHT22;47773;53.174;6.614;2022-08-18T16:40:19;21.80;99.90
61841;DHT22;47773;53.174;6.614;2022-08-18T16:42:45;21.70;99.90
61841;DHT22;47773;53.174;6.614;2022-08-18T16:45:11;21.70;99.90
61841;DHT22;47773;53.174;6.614;2022-08-18T16:47:37;21.70;99.90
61841;DHT22;47773;53.174;6.614;2022-08-18T16:50:11;21.70;99.90
61841;DHT22;47773;53.174;6.614;2022-08-18T16:52:37;21.60;99.90
61841;DHT22;47773;53.174;6.614;2022-08-18T16:55:03;21.60;99.90
61841;DHT22;47773;53.174;6.614;2022-08-18T16:57:29;21.60;99.90
61841;DHT22;47773;53.174;6.614;2022-08-18T17:00:14;21.50;99.90
61841;DHT22;47773;53.174;6.614;2022-08-18T17:03:03;21.50;99.90
61841;DHT22;47773;53.174;6.614;2022-08-18T17:05:48;21.40;99.90
61841;DHT22;47773;53.174;6.614;2022-08-18T17:08:13;21.40;99.90
61841;DHT22;47773;53.174;6.614;2022-08-18T17:10:41;21.30;99.90
61841;DHT22;47773;53.174;6.614;2022-08-18T17:13:07;21.30;99.90
61841;DHT22;47773;53.174;6.614;2022-08-18T17:15:32;21.20;99.90
61841;DHT22;47773;53.174;6.614;2022-08-18T17:17:58;21.20;99.90
61841;DHT22;47773;53.174;6.614;2022-08-18T17:20:26;21.10;99.90
61841;DHT22;47773;53.174;6.614;2022-08-18T17:22:51;21.10;99.90
61841;DHT22;47773;53.174;6.614;2022-08-18T17:25:19;21.00;99.90
61841;DHT22;47773;53.174;6.614;2022-08-18T17:27:47;21.00;99.90
61841;DHT22;47773;53.174;6.614;2022-08-18T17:30:18;21.00;99.90
61841;DHT22;47773;53.174;6.614;2022-08-18T17:32:54;21.00;99.90
61841;DHT22;47773;53.174;6.614;2022-08-18T17:35:27;21.00;99.90
61841;DHT22;47773;53.174;6.614;2022-08-18T17:38:29;20.90;99.90
61841;DHT22;47773;53.174;6.614;2022-08-18T17:40:59;20.90;99.90
61841;DHT22;47773;53.174;6.614;2022-08-18T17:43:29;20.90;99.90
61841;DHT22;47773;53.174;6.614;2022-08-18T17:46:19;20.90;99.90
61841;DHT22;47773;53.174;6.614;2022-08-18T17:49:12;20.70;99.90
61841;DHT22;47773;53.174;6.614;2022-08-18T17:51:45;20.70;99.90
61841;DHT22;47773;53.174;6.614;2022-08-18T17:56:54;20.50;99.90
61841;DHT22;47773;53.174;6.614;2022-08-18T17:59:33;20.50;99.90
61841;DHT22;47773;53.174;6.614;2022-08-18T18:02:27;20.40;99.90
61841;DHT22;47773;53.174;6.614;2022-08-18T18:04:53;20.40;99.90
61841;DHT22;47773;53.174;6.614;2022-08-18T18:10:11;20.30;99.90
61841;DHT22;47773;53.174;6.614;2022-08-18T18:12:39;20.30;99.90